Time,TemperatureF,DewpointF,PressureIn,WindDirection,WindDirectionDegrees,WindSpeedMPH,WindSpeedGustMPH,Humidity,HourlyPrecipIn,Conditions,Clouds,dailyrainin,SoftwareType,DateUTC
2013-07-29 00:09:00,60.9,54.0,30.00,North,9,1.0,5.0,78,0.00,,,0.00,Wunderground v.1.15,2013-07-29 05:09:00,
2013-07-29 00:14:00,61.0,54.1,30.00,West,259,1.0,5.0,78,0.00,,,0.00,Wunderground v.1.15,2013-07-29 05:14:00,
2013-07-29 00:19:00,60.8,53.9,30.00,WNW,286,1.0,2.0,78,0.00,,,0.00,Wunderground v.1.15,2013-07-29 05:19:00,
2013-07-29 00:29:00,60.5,53.6,30.00,WSW,257,1.0,5.0,78,0.00,,,0.00,Wunderground v.1.15,2013-07-29 05:29:00,
2013-07-29 00:34:00,60.6,53.7,30.00,West,266,1.0,5.0,78,0.00,,,0.00,Wunderground v.1.15,2013-07-29 05:34:00,
2013-07-29 00:44:00,60.0,53.8,30.00,SW,229,1.0,1.0,80,0.00,,,0.00,Wunderground v.1.15,2013-07-29 05:44:00,
2013-07-29 00:49:00,59.7,53.5,30.00,WSW,256,1.0,1.0,80,0.00,,,0.00,Wunderground v.1.15,2013-07-29 05:49:00,
2013-07-29 00:54:00,59.4,53.6,30.00,WSW,246,1.0,1.0,81,0.00,,,0.00,Wunderground v.1.15,2013-07-29 05:54:00,
2013-07-29 00:59:00,59.2,53.4,30.00,West,270,0.0,0.0,81,0.00,,,0.00,Wunderground v.1.15,2013-07-29 05:59:00,
2013-07-29 01:09:00,58.7,53.2,30.00,SSW,207,0.0,2.0,82,0.00,,,0.00,Wunderground v.1.15,2013-07-29 06:09:00,
2013-07-29 01:14:00,58.6,53.5,30.00,SSW,210,1.0,2.0,83,0.00,,,0.00,Wunderground v.1.15,2013-07-29 06:14:00,
2013-07-29 01:19:00,58.4,53.3,30.00,SW,218,1.0,1.0,83,0.00,,,0.00,Wunderground v.1.15,2013-07-29 06:19:00,
2013-07-29 01:24:00,58.3,53.2,30.00,SW,232,0.0,1.0,83,0.00,,,0.00,Wunderground v.1.15,2013-07-29 06:24:00,
2013-07-29 01:29:00,58.1,53.0,30.00,SW,231,0.0,0.0,83,0.00,,,0.00,Wunderground v.1.15,2013-07-29 06:29:00,
2013-07-29 01:39:00,57.7,53.2,30.00,SSW,197,0.0,1.0,85,0.00,,,0.00,Wunderground v.1.15,2013-07-29 06:39:00,
2013-07-29 01:49:00,57.5,53.3,30.00,SW,219,1.0,1.0,86,0.00,,,0.00,Wunderground v.1.15,2013-07-29 06:49:00,
2013-07-29 01:54:00,57.5,53.3,30.00,SW,225,1.0,1.0,86,0.00,,,0.00,Wunderground v.1.15,2013-07-29 06:54:00,
2013-07-29 01:59:00,57.7,53.2,30.01,SSW,212,2.0,2.0,85,0.00,,,0.00,Wunderground v.1.15,2013-07-29 06:59:00,
2013-07-29 02:09:00,57.6,53.4,30.01,SW,218,2.0,2.0,86,0.00,,,0.00,Wunderground v.1.15,2013-07-29 07:09:00,
2013-07-29 02:14:00,57.5,53.3,30.01,SSW,210,2.0,2.0,86,0.00,,,0.00,Wunderground v.1.15,2013-07-29 07:14:00,
2013-07-29 02:24:00,57.3,53.1,30.01,SSW,198,2.0,2.0,86,0.00,,,0.00,Wunderground v.1.15,2013-07-29 07:24:00,
2013-07-29 02:29:00,57.1,53.0,30.01,SW,233,1.0,1.0,86,0.00,,,0.00,Wunderground v.1.15,2013-07-29 07:29:00,
2013-07-29 02:34:00,57.1,53.0,30.01,WSW,253,2.0,2.0,86,0.00,,,0.00,Wunderground v.1.15,2013-07-29 07:34:00,
2013-07-29 02:44:00,56.9,52.8,30.01,SW,224,2.0,2.0,86,0.00,,,0.00,Wunderground v.1.15,2013-07-29 07:44:00,
2013-07-29 02:49:00,56.8,53.0,30.01,SSW,212,1.0,2.0,87,0.00,,,0.00,Wunderground v.1.15,2013-07-29 07:49:00,
2013-07-29 02:59:00,56.7,52.9,30.01,SW,235,2.0,2.0,87,0.00,,,0.00,Wunderground v.1.15,2013-07-29 07:59:00,
2013-07-29 03:09:00,56.6,52.8,30.01,SSW,210,1.0,1.0,87,0.00,,,0.00,Wunderground v.1.15,2013-07-29 08:09:00,
2013-07-29 03:14:00,56.4,52.9,30.01,SW,225,1.0,1.0,88,0.00,,,0.00,Wunderground v.1.15,2013-07-29 08:14:00,
2013-07-29 03:19:00,56.4,52.9,30.01,SW,218,1.0,1.0,88,0.00,,,0.00,Wunderground v.1.15,2013-07-29 08:19:00,
2013-07-29 03:29:00,56.4,52.9,30.01,WSW,248,1.0,1.0,88,0.00,,,0.00,Wunderground v.1.15,2013-07-29 08:29:00,
2013-07-29 03:39:00,56.0,52.5,30.01,WNW,284,0.0,0.0,88,0.00,,,0.00,Wunderground v.1.15,2013-07-29 08:39:00,
2013-07-29 03:44:00,55.7,52.2,30.01,WSW,253,0.0,0.0,88,0.00,,,0.00,Wunderground v.1.15,2013-07-29 08:44:00,
2013-07-29 03:49:00,55.5,52.3,30.01,WSW,238,0.0,0.0,89,0.00,,,0.00,Wunderground v.1.15,2013-07-29 08:49:00,
2013-07-29 03:54:00,55.3,52.1,30.01,SSW,210,0.0,0.0,89,0.00,,,0.00,Wunderground v.1.15,2013-07-29 08:54:00,
2013-07-29 03:59:00,55.3,52.1,30.02,SW,214,0.0,0.0,89,0.00,,,0.00,Wunderground v.1.15,2013-07-29 08:59:00,
2013-07-29 04:09:00,55.1,51.9,30.02,SW,214,0.0,0.0,89,0.00,,,0.00,Wunderground v.1.15,2013-07-29 09:09:00,
2013-07-29 04:14:00,55.0,51.8,30.02,ESE,110,0.0,0.0,89,0.00,,,0.00,Wunderground v.1.15,2013-07-29 09:14:00,
2013-07-29 04:19:00,55.2,52.0,30.02,WNW,300,0.0,0.0,89,0.00,,,0.00,Wunderground v.1.15,2013-07-29 09:19:00,
2013-07-29 04:24:00,55.3,51.8,30.02,North,9,0.0,0.0,88,0.00,,,0.00,Wunderground v.1.15,2013-07-29 09:24:00,
2013-07-29 04:29:00,55.2,51.7,30.02,North,9,0.0,0.0,88,0.00,,,0.00,Wunderground v.1.15,2013-07-29 09:29:00,
2013-07-29 04:39:00,54.9,51.4,30.03,WSW,238,0.0,0.0,88,0.00,,,0.00,Wunderground v.1.15,2013-07-29 09:39:00,
2013-07-29 04:44:00,54.7,51.5,30.02,WSW,245,0.0,0.0,89,0.00,,,0.00,Wunderground v.1.15,2013-07-29 09:44:00,
2013-07-29 04:49:00,54.5,51.3,30.02,WSW,245,0.0,0.0,89,0.00,,,0.00,Wunderground v.1.15,2013-07-29 09:49:00,
2013-07-29 04:54:00,54.1,50.9,30.02,WSW,245,0.0,0.0,89,0.00,,,0.00,Wunderground v.1.15,2013-07-29 09:54:00,
2013-07-29 04:59:00,53.9,51.0,30.03,WSW,245,0.0,0.0,90,0.00,,,0.00,Wunderground v.1.15,2013-07-29 09:59:00,
2013-07-29 05:09:00,53.5,50.9,30.03,WSW,245,0.0,0.0,91,0.00,,,0.00,Wunderground v.1.15,2013-07-29 10:09:00,
2013-07-29 05:14:00,53.1,50.5,30.03,WSW,245,0.0,0.0,91,0.00,,,0.00,Wunderground v.1.15,2013-07-29 10:14:00,
2013-07-29 05:19:00,53.0,50.4,30.03,SW,235,0.0,0.0,91,0.00,,,0.00,Wunderground v.1.15,2013-07-29 10:19:00,
2013-07-29 05:34:00,52.5,50.2,30.03,SW,235,0.0,0.0,92,0.00,,,0.00,Wunderground v.1.15,2013-07-29 10:34:00,
2013-07-29 05:39:00,52.3,50.0,30.04,SW,235,0.0,0.0,92,0.00,,,0.00,Wunderground v.1.15,2013-07-29 10:39:00,
2013-07-29 05:44:00,52.1,50.1,30.04,SW,235,0.0,0.0,93,0.00,,,0.00,Wunderground v.1.15,2013-07-29 10:44:00,
2013-07-29 05:54:00,52.0,50.0,30.05,SSW,193,0.0,0.0,93,0.00,,,0.00,Wunderground v.1.15,2013-07-29 10:54:00,
2013-07-29 05:59:00,52.1,50.4,30.05,SSE,164,0.0,0.0,94,0.00,,,0.00,Wunderground v.1.15,2013-07-29 10:59:00,
2013-07-29 06:08:00,52.6,50.6,30.05,WSW,240,0.0,0.0,93,0.00,,,0.00,Wunderground v.1.15,2013-07-29 11:08:00,
2013-07-29 06:14:00,52.5,50.5,30.06,WSW,240,0.0,0.0,93,0.00,,,0.00,Wunderground v.1.15,2013-07-29 11:14:00,
2013-07-29 06:29:00,53.1,51.1,30.06,North,5,0.0,0.0,93,0.00,,,0.00,Wunderground v.1.15,2013-07-29 11:29:00,
2013-07-29 06:34:00,53.2,50.9,30.06,North,5,0.0,0.0,92,0.00,,,0.00,Wunderground v.1.15,2013-07-29 11:34:00,
2013-07-29 06:44:00,53.5,51.2,30.06,North,6,0.0,0.0,92,0.00,,,0.00,Wunderground v.1.15,2013-07-29 11:44:00,
2013-07-29 06:53:00,53.7,51.4,30.07,North,5,0.0,0.0,92,0.00,,,0.00,Wunderground v.1.15,2013-07-29 11:53:00,
2013-07-29 06:59:00,54.2,51.9,30.07,North,5,0.0,0.0,92,0.00,,,0.00,Wunderground v.1.15,2013-07-29 11:59:00,
2013-07-29 07:08:00,55.3,52.1,30.08,WNW,292,0.0,0.0,89,0.00,,,0.00,Wunderground v.1.15,2013-07-29 12:08:00,
2013-07-29 07:13:00,55.9,52.4,30.08,NE,56,0.0,1.0,88,0.00,,,0.00,Wunderground v.1.15,2013-07-29 12:13:00,
2013-07-29 07:18:00,56.7,52.6,30.08,NNW,328,1.0,1.0,86,0.00,,,0.00,Wunderground v.1.15,2013-07-29 12:18:00,
2013-07-29 07:23:00,57.2,52.7,30.07,NNE,25,2.0,3.0,85,0.00,,,0.00,Wunderground v.1.15,2013-07-29 12:23:00,
2013-07-29 07:33:00,57.4,52.3,30.07,NW,318,2.0,2.0,83,0.00,,,0.00,Wunderground v.1.15,2013-07-29 12:33:00,
2013-07-29 07:38:00,57.5,52.7,30.08,NE,47,3.0,3.0,84,0.00,,,0.00,Wunderground v.1.15,2013-07-29 12:38:00,
2013-07-29 07:48:00,57.8,52.3,30.08,North,5,2.0,2.0,82,0.00,,,0.00,Wunderground v.1.15,2013-07-29 12:48:00,
2013-07-29 07:53:00,58.1,52.6,30.08,SW,225,2.0,2.0,82,0.00,,,0.00,Wunderground v.1.15,2013-07-29 12:53:00,
2013-07-29 07:58:00,58.2,52.4,30.08,West,277,2.0,2.0,81,0.00,,,0.00,Wunderground v.1.15,2013-07-29 12:58:00,
2013-07-29 08:08:00,58.4,52.3,30.09,WNW,287,2.0,2.0,80,0.00,,,0.00,Wunderground v.1.15,2013-07-29 13:08:00,
2013-07-29 08:18:00,58.8,52.3,30.09,NW,321,3.0,3.0,79,0.00,,,0.00,Wunderground v.1.15,2013-07-29 13:18:00,
2013-07-29 08:23:00,58.9,52.4,30.09,NW,311,3.0,4.0,79,0.00,,,0.00,Wunderground v.1.15,2013-07-29 13:23:00,
2013-07-29 08:33:00,59.4,52.9,30.10,WNW,298,2.0,3.0,79,0.00,,,0.00,Wunderground v.1.15,2013-07-29 13:33:00,
2013-07-29 08:38:00,59.7,52.5,30.09,NNW,342,2.0,3.0,77,0.00,,,0.00,Wunderground v.1.15,2013-07-29 13:38:00,
2013-07-29 08:43:00,60.1,52.5,30.10,North,5,2.0,3.0,76,0.00,,,0.00,Wunderground v.1.15,2013-07-29 13:43:00,
2013-07-29 08:48:00,60.3,52.7,30.10,North,349,2.0,2.0,76,0.00,,,0.00,Wunderground v.1.15,2013-07-29 13:48:00,
2013-07-29 08:58:00,60.7,52.7,30.10,WNW,292,2.0,2.0,75,0.00,,,0.00,Wunderground v.1.15,2013-07-29 13:58:00,
2013-07-29 09:08:00,61.1,52.7,30.10,WNW,290,2.0,2.0,74,0.00,,,0.00,Wunderground v.1.15,2013-07-29 14:08:00,
2013-07-29 09:13:00,61.3,53.3,30.10,West,280,2.0,2.0,75,0.00,,,0.00,Wunderground v.1.15,2013-07-29 14:13:00,
2013-07-29 09:18:00,61.2,52.8,30.10,WSW,246,2.0,2.0,74,0.00,,,0.00,Wunderground v.1.15,2013-07-29 14:18:00,
2013-07-29 09:28:00,61.6,53.2,30.10,NNW,333,2.0,3.0,74,0.00,,,0.00,Wunderground v.1.15,2013-07-29 14:28:00,
2013-07-29 09:33:00,61.5,53.1,30.10,NW,307,2.0,3.0,74,0.00,,,0.00,Wunderground v.1.15,2013-07-29 14:33:00,
2013-07-29 09:43:00,61.8,54.2,30.10,WSW,256,2.0,3.0,76,0.00,,,0.00,Wunderground v.1.15,2013-07-29 14:43:00,
2013-07-29 09:49:00,62.0,53.6,30.10,NNW,342,2.0,3.0,74,0.00,,,0.00,Wunderground v.1.15,2013-07-29 14:49:00,
2013-07-29 09:54:00,62.0,53.6,30.10,North,8,3.0,3.0,74,0.00,,,0.00,Wunderground v.1.15,2013-07-29 14:54:00,
2013-07-29 09:59:00,62.5,54.8,30.10,North,350,2.0,3.0,76,0.00,,,0.00,Wunderground v.1.15,2013-07-29 14:59:00,
2013-07-29 10:09:00,62.9,54.9,30.11,NW,304,2.0,2.0,75,0.00,,,0.00,Wunderground v.1.15,2013-07-29 15:09:00,
2013-07-29 10:19:00,63.6,54.8,30.11,WSW,257,2.0,4.0,73,0.00,,,0.00,Wunderground v.1.15,2013-07-29 15:19:00,
2013-07-29 10:24:00,63.5,55.1,30.11,NW,314,2.0,4.0,74,0.00,,,0.00,Wunderground v.1.15,2013-07-29 15:24:00,
2013-07-29 10:39:00,64.5,56.4,30.12,WSW,256,2.0,2.0,75,0.00,,,0.00,Wunderground v.1.15,2013-07-29 15:39:00,
2013-07-29 10:44:00,64.2,55.4,30.12,NW,314,2.0,2.0,73,0.00,,,0.00,Wunderground v.1.15,2013-07-29 15:44:00,
2013-07-29 10:49:00,64.8,57.1,30.12,West,278,1.0,1.0,76,0.00,,,0.00,Wunderground v.1.15,2013-07-29 15:49:00,
2013-07-29 10:54:00,65.1,55.5,30.12,NNW,345,2.0,4.0,71,0.00,,,0.00,Wunderground v.1.15,2013-07-29 15:54:00,
2013-07-29 10:59:00,65.1,55.8,30.12,West,266,2.0,2.0,72,0.00,,,0.00,Wunderground v.1.15,2013-07-29 15:59:00,
2013-07-29 11:14:00,66.1,56.0,30.12,North,350,2.0,2.0,70,0.00,,,0.00,Wunderground v.1.15,2013-07-29 16:14:00,
2013-07-29 11:29:00,66.2,56.5,30.12,WNW,288,2.0,2.0,71,0.00,,,0.00,Wunderground v.1.15,2013-07-29 16:29:00,
2013-07-29 11:34:00,66.1,56.4,30.12,North,352,1.0,3.0,71,0.00,,,0.00,Wunderground v.1.15,2013-07-29 16:34:00,
2013-07-29 11:44:00,66.1,56.4,30.12,WNW,296,2.0,2.0,71,0.00,,,0.00,Wunderground v.1.15,2013-07-29 16:44:00,
2013-07-29 11:49:00,66.4,56.7,30.12,NE,53,1.0,2.0,71,0.00,,,0.00,Wunderground v.1.15,2013-07-29 16:49:00,
2013-07-29 11:59:00,66.7,57.0,30.12,WSW,253,2.0,2.0,71,0.00,,,0.00,Wunderground v.1.15,2013-07-29 16:59:00,
2013-07-29 12:09:00,67.4,57.7,30.12,West,270,2.0,2.0,71,0.00,,,0.00,Wunderground v.1.15,2013-07-29 17:09:00,
2013-07-29 12:19:00,68.2,56.8,30.12,SW,228,2.0,2.0,67,0.00,,,0.00,Wunderground v.1.15,2013-07-29 17:19:00,
2013-07-29 12:24:00,68.6,59.2,30.12,SW,229,2.0,3.0,72,0.00,,,0.00,Wunderground v.1.15,2013-07-29 17:24:00,
2013-07-29 12:34:00,68.3,57.3,30.12,NW,305,2.0,3.0,68,0.00,,,0.00,Wunderground v.1.15,2013-07-29 17:34:00,
2013-07-29 12:39:00,68.9,58.3,30.12,WNW,284,1.0,3.0,69,0.00,,,0.00,Wunderground v.1.15,2013-07-29 17:39:00,
2013-07-29 12:48:00,69.5,57.6,30.12,West,267,2.0,2.0,66,0.00,,,0.00,Wunderground v.1.15,2013-07-29 17:48:00,
2013-07-29 12:53:00,69.9,57.6,30.12,WNW,288,1.0,2.0,65,0.00,,,0.00,Wunderground v.1.15,2013-07-29 17:53:00,
2013-07-29 12:59:00,69.9,58.4,30.12,NNW,328,1.0,2.0,67,0.00,,,0.00,Wunderground v.1.15,2013-07-29 17:59:00,
2013-07-29 13:09:00,69.8,57.9,30.12,NW,322,2.0,4.0,66,0.00,,,0.00,Wunderground v.1.15,2013-07-29 18:09:00,
2013-07-29 13:29:00,71.1,57.9,30.12,SSW,207,2.0,2.0,63,0.00,,,0.00,Wunderground v.1.15,2013-07-29 18:29:00,
2013-07-29 13:34:00,71.0,59.9,30.12,West,278,2.0,2.0,68,0.00,,,0.00,Wunderground v.1.15,2013-07-29 18:34:00,
2013-07-29 13:39:00,71.1,57.4,30.11,SSE,150,2.0,2.0,62,0.00,,,0.00,Wunderground v.1.15,2013-07-29 18:39:00,
2013-07-29 13:48:00,71.7,58.0,30.11,SW,222,1.0,3.0,62,0.00,,,0.00,Wunderground v.1.15,2013-07-29 18:48:00,
2013-07-29 13:53:00,71.4,59.4,30.11,SSW,208,2.0,2.0,66,0.00,,,0.00,Wunderground v.1.15,2013-07-29 18:53:00,
2013-07-29 13:59:00,71.8,59.0,30.11,NW,316,2.0,2.0,64,0.00,,,0.00,Wunderground v.1.15,2013-07-29 18:59:00,
2013-07-29 14:08:00,71.7,58.9,30.11,SW,233,2.0,2.0,64,0.00,,,0.00,Wunderground v.1.15,2013-07-29 19:08:00,
2013-07-29 14:14:00,71.9,59.5,30.11,West,259,1.0,2.0,65,0.00,,,0.00,Wunderground v.1.15,2013-07-29 19:14:00,
2013-07-29 14:28:00,71.7,58.9,30.10,West,276,1.0,1.0,64,0.00,,,0.00,Wunderground v.1.15,2013-07-29 19:28:00,
2013-07-29 14:33:00,72.1,59.2,30.10,West,267,1.0,1.0,64,0.00,,,0.00,Wunderground v.1.15,2013-07-29 19:33:00,
2013-07-29 14:43:00,73.0,60.1,30.10,West,266,1.0,4.0,64,0.00,,,0.00,Wunderground v.1.15,2013-07-29 19:43:00,
2013-07-29 14:48:00,72.6,57.9,30.10,NW,326,2.0,2.0,60,0.00,,,0.00,Wunderground v.1.15,2013-07-29 19:48:00,
2013-07-29 14:55:00,73.1,58.4,30.10,SW,222,1.0,2.0,60,0.00,,,0.00,Wunderground v.1.15,2013-07-29 19:55:00,
2013-07-29 15:00:00,73.5,59.2,30.10,SSE,149,1.0,1.0,61,0.00,,,0.00,Wunderground v.1.15,2013-07-29 20:00:00,
2013-07-29 15:10:00,73.8,59.5,30.10,SW,233,1.0,1.0,61,0.00,,,0.00,Wunderground v.1.15,2013-07-29 20:10:00,
2013-07-29 15:15:00,73.5,60.1,30.10,WNW,297,2.0,3.0,63,0.00,,,0.00,Wunderground v.1.15,2013-07-29 20:15:00,
2013-07-29 15:20:00,73.4,60.0,30.10,WNW,294,2.0,2.0,63,0.00,,,0.00,Wunderground v.1.15,2013-07-29 20:20:00,
2013-07-29 15:30:00,73.6,59.3,30.10,WSW,257,2.0,2.0,61,0.00,,,0.00,Wunderground v.1.15,2013-07-29 20:30:00,
2013-07-29 15:35:00,73.4,58.7,30.10,SW,214,2.0,2.0,60,0.00,,,0.00,Wunderground v.1.15,2013-07-29 20:35:00,
2013-07-29 15:45:00,73.6,58.9,30.10,NE,55,1.0,3.0,60,0.00,,,0.00,Wunderground v.1.15,2013-07-29 20:45:00,
2013-07-29 15:55:00,73.4,59.1,30.10,NE,46,2.0,2.0,61,0.00,,,0.00,Wunderground v.1.15,2013-07-29 20:55:00,
2013-07-29 16:00:00,73.6,59.3,30.10,NNE,33,2.0,3.0,61,0.00,,,0.00,Wunderground v.1.15,2013-07-29 21:00:00,
2013-07-29 16:10:00,73.3,58.1,30.09,WSW,246,2.0,2.0,59,0.00,,,0.00,Wunderground v.1.15,2013-07-29 21:10:00,
2013-07-29 16:15:00,73.6,58.4,30.09,NE,46,1.0,2.0,59,0.00,,,0.00,Wunderground v.1.15,2013-07-29 21:15:00,
2013-07-29 16:20:00,73.8,58.6,30.09,SW,219,1.0,1.0,59,0.00,,,0.00,Wunderground v.1.15,2013-07-29 21:20:00,
2013-07-29 16:25:00,74.4,59.6,30.09,SE,136,1.0,1.0,60,0.00,,,0.00,Wunderground v.1.15,2013-07-29 21:25:00,
2013-07-29 16:35:00,73.7,58.9,30.09,NNW,329,2.0,2.0,60,0.00,,,0.00,Wunderground v.1.15,2013-07-29 21:35:00,
2013-07-29 16:40:00,74.2,60.8,30.09,SSE,150,1.0,1.0,63,0.00,,,0.00,Wunderground v.1.15,2013-07-29 21:40:00,
2013-07-29 16:45:00,75.1,59.8,30.09,SE,127,1.0,1.0,59,0.00,,,0.00,Wunderground v.1.15,2013-07-29 21:45:00,
2013-07-29 16:55:00,75.5,59.2,30.09,West,266,1.0,1.0,57,0.00,,,0.00,Wunderground v.1.15,2013-07-29 21:55:00,
2013-07-29 17:05:00,75.6,59.3,30.09,SW,229,1.0,1.0,57,0.00,,,0.00,Wunderground v.1.15,2013-07-29 22:05:00,
2013-07-29 17:10:00,75.3,58.0,30.09,SSW,201,2.0,2.0,55,0.00,,,0.00,Wunderground v.1.15,2013-07-29 22:10:00,
2013-07-29 17:15:00,75.5,59.2,30.09,SE,131,1.0,2.0,57,0.00,,,0.00,Wunderground v.1.15,2013-07-29 22:15:00,
2013-07-29 17:20:00,75.8,59.5,30.09,WNW,287,0.0,0.0,57,0.00,,,0.00,Wunderground v.1.15,2013-07-29 22:20:00,
2013-07-29 17:30:00,75.8,59.5,30.10,WSW,239,1.0,2.0,57,0.00,,,0.00,Wunderground v.1.15,2013-07-29 22:30:00,
2013-07-29 17:35:00,75.5,58.7,30.10,SW,228,1.0,2.0,56,0.00,,,0.00,Wunderground v.1.15,2013-07-29 22:35:00,
2013-07-29 17:45:00,75.4,61.5,30.10,WSW,238,1.0,1.0,62,0.00,,,0.00,Wunderground v.1.15,2013-07-29 22:45:00,
2013-07-29 17:50:00,75.6,60.7,30.10,SE,138,1.0,1.0,60,0.00,,,0.00,Wunderground v.1.15,2013-07-29 22:50:00,
2013-07-29 17:55:00,75.8,59.0,30.10,SW,215,1.0,1.0,56,0.00,,,0.00,Wunderground v.1.15,2013-07-29 22:55:00,
2013-07-29 18:00:00,75.7,59.4,30.09,WSW,257,1.0,2.0,57,0.00,,,0.00,Wunderground v.1.15,2013-07-29 23:00:00,
2013-07-29 18:10:00,75.6,59.8,30.09,SE,129,1.0,1.0,58,0.00,,,0.00,Wunderground v.1.15,2013-07-29 23:10:00,
2013-07-29 18:15:00,75.9,60.1,30.09,SE,129,1.0,1.0,58,0.00,,,0.00,Wunderground v.1.15,2013-07-29 23:15:00,
2013-07-29 18:20:00,76.3,59.9,30.09,SSE,153,0.0,1.0,57,0.00,,,0.00,Wunderground v.1.15,2013-07-29 23:20:00,
2013-07-29 18:25:00,76.1,60.7,30.10,SSE,150,0.0,1.0,59,0.00,,,0.00,Wunderground v.1.15,2013-07-29 23:25:00,
2013-07-29 18:35:00,75.7,59.9,30.10,SW,222,1.0,1.0,58,0.00,,,0.00,Wunderground v.1.15,2013-07-29 23:35:00,
2013-07-29 18:40:00,75.6,59.8,30.10,SE,126,1.0,1.0,58,0.00,,,0.00,Wunderground v.1.15,2013-07-29 23:40:00,
2013-07-29 18:45:00,75.4,60.5,30.10,WSW,250,0.0,1.0,60,0.00,,,0.00,Wunderground v.1.15,2013-07-29 23:45:00,
2013-07-29 18:50:00,75.6,60.7,30.10,SSE,165,0.0,0.0,60,0.00,,,0.00,Wunderground v.1.15,2013-07-29 23:50:00,
2013-07-29 18:55:00,75.6,59.8,30.10,SE,134,0.0,0.0,58,0.00,,,0.00,Wunderground v.1.15,2013-07-29 23:55:00,
2013-07-29 19:00:00,75.4,60.5,30.10,NE,37,0.0,1.0,60,0.00,,,0.00,Wunderground v.1.15,2013-07-30 00:00:00,
2013-07-29 19:10:00,75.1,60.3,30.10,North,360,0.0,0.0,60,0.00,,,0.00,Wunderground v.1.15,2013-07-30 00:10:00,
2013-07-29 19:30:00,74.7,60.4,30.10,SE,131,0.0,0.0,61,0.00,,,0.00,Wunderground v.1.15,2013-07-30 00:30:00,
2013-07-29 19:40:00,74.2,59.9,30.10,SE,131,0.0,0.0,61,0.00,,,0.00,Wunderground v.1.15,2013-07-30 00:40:00,
2013-07-29 19:45:00,73.5,60.1,30.10,SE,131,0.0,0.0,63,0.00,,,0.00,Wunderground v.1.15,2013-07-30 00:45:00,
2013-07-29 19:50:00,72.8,59.9,30.10,SE,131,0.0,0.0,64,0.00,,,0.00,Wunderground v.1.15,2013-07-30 00:50:00,
2013-07-29 19:55:00,71.9,59.5,30.10,SE,133,0.0,0.0,65,0.00,,,0.00,Wunderground v.1.15,2013-07-30 00:55:00,
2013-07-29 20:00:00,70.9,60.2,30.10,SE,132,0.0,0.0,69,0.00,,,0.00,Wunderground v.1.15,2013-07-30 01:00:00,
2013-07-29 20:25:00,66.9,59.1,30.10,SE,133,0.0,0.0,76,0.00,,,0.00,Wunderground v.1.15,2013-07-30 01:25:00,
2013-07-29 20:34:00,65.7,58.7,30.11,SE,132,0.0,0.0,78,0.00,,,0.00,Wunderground v.1.15,2013-07-30 01:34:00,
2013-07-29 20:40:00,65.3,58.6,30.10,SE,133,0.0,0.0,79,0.00,,,0.00,Wunderground v.1.15,2013-07-30 01:40:00,
2013-07-29 20:49:00,64.5,58.5,30.10,SE,132,0.0,0.0,81,0.00,,,0.00,Wunderground v.1.15,2013-07-30 01:49:00,
2013-07-29 20:54:00,64.1,58.5,30.11,SE,134,0.0,0.0,82,0.00,,,0.00,Wunderground v.1.15,2013-07-30 01:54:00,
2013-07-29 21:00:00,63.8,58.9,30.11,SE,134,0.0,0.0,84,0.00,,,0.00,Wunderground v.1.15,2013-07-30 02:00:00,
2013-07-29 21:10:00,63.3,58.7,30.11,SE,134,0.0,0.0,85,0.00,,,0.00,Wunderground v.1.15,2013-07-30 02:10:00,
2013-07-29 21:25:00,62.4,58.5,30.11,SE,134,0.0,0.0,87,0.00,,,0.00,Wunderground v.1.15,2013-07-30 02:25:00,
2013-07-29 21:30:00,62.2,58.3,30.11,SE,134,0.0,0.0,87,0.00,,,0.00,Wunderground v.1.15,2013-07-30 02:30:00,
2013-07-29 21:35:00,62.1,58.5,30.12,SE,134,0.0,0.0,88,0.00,,,0.00,Wunderground v.1.15,2013-07-30 02:35:00,
2013-07-29 21:40:00,61.9,58.3,30.12,SE,134,0.0,0.0,88,0.00,,,0.00,Wunderground v.1.15,2013-07-30 02:40:00,
2013-07-29 21:45:00,61.8,58.2,30.12,SE,134,0.0,0.0,88,0.00,,,0.00,Wunderground v.1.15,2013-07-30 02:45:00,
2013-07-29 21:54:00,61.6,58.0,30.12,SE,134,0.0,0.0,88,0.00,,,0.00,Wunderground v.1.15,2013-07-30 02:54:00,
2013-07-29 21:59:00,61.7,58.1,30.12,SSE,167,0.0,0.0,88,0.00,,,0.00,Wunderground v.1.15,2013-07-30 02:59:00,
2013-07-29 22:09:00,61.3,58.0,30.13,SSE,166,0.0,0.0,89,0.00,,,0.00,Wunderground v.1.15,2013-07-30 03:09:00,
2013-07-29 22:14:00,61.2,57.9,30.13,SSE,166,0.0,0.0,89,0.00,,,0.00,Wunderground v.1.15,2013-07-30 03:14:00,
2013-07-29 22:19:00,61.0,57.7,30.13,SSE,167,0.0,0.0,89,0.00,,,0.00,Wunderground v.1.15,2013-07-30 03:19:00,
2013-07-29 22:24:00,60.7,57.7,30.13,SSE,167,0.0,0.0,90,0.00,,,0.00,Wunderground v.1.15,2013-07-30 03:24:00,
2013-07-29 22:34:00,60.4,57.5,30.13,SSE,167,0.0,0.0,90,0.00,,,0.00,Wunderground v.1.15,2013-07-30 03:34:00,
2013-07-29 22:45:00,60.1,57.5,30.13,SSE,167,0.0,0.0,91,0.00,,,0.00,Wunderground v.1.15,2013-07-30 03:45:00,
2013-07-29 22:54:00,60.0,57.4,30.12,SSE,166,0.0,0.0,91,0.00,,,0.00,Wunderground v.1.15,2013-07-30 03:54:00,
2013-07-29 23:00:00,60.0,57.4,30.13,SSE,167,0.0,0.0,91,0.00,,,0.00,Wunderground v.1.15,2013-07-30 04:00:00,
2013-07-29 23:04:00,60.0,57.4,30.13,SSE,166,0.0,0.0,91,0.00,,,0.00,Wunderground v.1.15,2013-07-30 04:04:00,
2013-07-29 23:10:00,59.9,57.3,30.13,SSE,166,0.0,0.0,91,0.00,,,0.00,Wunderground v.1.15,2013-07-30 04:10:00,
2013-07-29 23:14:00,59.8,57.2,30.13,SSE,166,0.0,0.0,91,0.00,,,0.00,Wunderground v.1.15,2013-07-30 04:14:00,
2013-07-29 23:20:00,59.6,57.3,30.13,SSE,167,0.0,0.0,92,0.00,,,0.00,Wunderground v.1.15,2013-07-30 04:20:00,
2013-07-29 23:24:00,59.4,57.1,30.13,SSE,166,0.0,0.0,92,0.00,,,0.00,Wunderground v.1.15,2013-07-30 04:24:00,
2013-07-29 23:29:00,59.1,56.8,30.13,SSE,167,0.0,0.0,92,0.00,,,0.00,Wunderground v.1.15,2013-07-30 04:29:00,
2013-07-29 23:34:00,59.0,56.7,30.12,SSE,167,0.0,0.0,92,0.00,,,0.00,Wunderground v.1.15,2013-07-30 04:34:00,
2013-07-29 23:39:00,58.9,56.6,30.12,SSE,166,0.0,0.0,92,0.00,,,0.00,Wunderground v.1.15,2013-07-30 04:39:00,
2013-07-29 23:44:00,58.9,56.9,30.13,SSE,167,0.0,0.0,93,0.00,,,0.00,Wunderground v.1.15,2013-07-30 04:44:00,
2013-07-29 23:54:00,58.9,56.9,30.13,SSE,166,0.0,0.0,93,0.00,,,0.00,Wunderground v.1.15,2013-07-30 04:54:00,